Time;durP1;ratioP1;P1;durP2;ratioP2;P2;SDS_P1;SDS_P2;PMS_P1;PMS_P2;Temp;Humidity;BMP_temperature;BMP_pressure;BME280_temperature;BME280_humidity;BME280_pressure;Samples;Min_cycle;Max_cycle;Signal;HPM_P1;HPM_P2
2021/08/01 00:01:54;;;;;;;;;;;14.10;99.90;;;;;;5093589;28;19912;-69
2021/08/01 00:04:20;;;;;;;;;;;14.10;99.90;;;;;;5093590;28;19915;-69
2021/08/01 00:06:45;;;;;;;;;;;14.10;99.90;;;;;;5093559;28;19912;-69
2021/08/01 00:09:11;;;;;;;;;;;14.10;99.90;;;;;;5093571;28;19908;-69
2021/08/01 00:11:36;;;;;;;;;;;14.00;99.90;;;;;;5093557;28;19957;-69
2021/08/01 00:14:02;;;;;;;;;;;14.00;99.90;;;;;;5093515;28;19940;-69
2021/08/01 00:16:27;;;;;;;;;;;13.90;99.90;;;;;;5093565;28;19915;-70
2021/08/01 00:18:55;;;;;;;;;;;13.90;99.90;;;;;;5093436;28;20284;-70
2021/08/01 00:21:20;;;;;;;;;;;13.90;99.90;;;;;;5093447;28;19908;-69
2021/08/01 00:23:46;;;;;;;;;;;13.90;99.90;;;;;;5093750;28;19908;-69
2021/08/01 00:26:11;;;;;;;;;;;13.90;99.90;;;;;;5078694;28;19915;-69
2021/08/01 00:28:37;;;;;;;;;;;13.90;99.90;;;;;;5097366;28;19915;-69
2021/08/01 00:31:02;;;;;;;;;;;13.90;99.90;;;;;;5097262;28;19957;-69
2021/08/01 00:33:28;;;;;;;;;;;13.80;99.90;;;;;;5097245;28;19910;-70
2021/08/01 00:35:53;;;;;;;;;;;13.80;99.90;;;;;;5097234;28;19908;-69
2021/08/01 00:38:19;;;;;;;;;;;13.70;99.90;;;;;;5097072;28;19986;-69
2021/08/01 00:40:44;;;;;;;;;;;13.80;99.90;;;;;;5079039;28;19919;-69
2021/08/01 00:43:09;;;;;;;;;;;13.70;99.90;;;;;;5097075;28;19915;-69
2021/08/01 00:45:35;;;;;;;;;;;13.70;99.90;;;;;;5078951;28;20361;-69
2021/08/01 00:48:01;;;;;;;;;;;13.70;99.90;;;;;;5097258;28;20277;-69
2021/08/01 00:50:27;;;;;;;;;;;13.70;99.90;;;;;;5096903;28;19908;-70
2021/08/01 00:52:53;;;;;;;;;;;13.60;99.90;;;;;;5096871;28;20310;-69
2021/08/01 00:55:18;;;;;;;;;;;13.60;99.90;;;;;;5096835;28;20284;-70
2021/08/01 00:57:44;;;;;;;;;;;13.60;99.90;;;;;;5078257;28;19916;-69
2021/08/01 01:00:23;;;;;;;;;;;13.60;99.90;;;;;;5096469;28;20316;-69
2021/08/01 01:02:49;;;;;;;;;;;13.60;99.90;;;;;;5096396;28;20361;-69
2021/08/01 01:05:18;;;;;;;;;;;13.60;99.90;;;;;;5096323;28;19958;-69
2021/08/01 01:08:04;;;;;;;;;;;13.60;99.90;;;;;;5096322;28;19953;-69
2021/08/01 01:10:38;;;;;;;;;;;13.60;99.90;;;;;;5096247;28;19915;-69
2021/08/01 01:13:10;;;;;;;;;;;13.50;99.90;;;;;;5096210;28;19908;-69
2021/08/01 01:15:39;;;;;;;;;;;13.50;99.90;;;;;;5096154;28;19915;-69
2021/08/01 01:18:06;;;;;;;;;;;13.40;99.90;;;;;;5095867;28;19928;-69
2021/08/01 01:23:31;;;;;;;;;;;13.40;99.90;;;;;;5092371;27;19912;-70
2021/08/01 01:26:01;;;;;;;;;;;13.40;99.90;;;;;;5092021;28;20358;-70
2021/08/01 01:28:47;;;;;;;;;;;13.30;99.90;;;;;;5091943;28;19909;-70
2021/08/01 01:31:16;;;;;;;;;;;13.30;99.90;;;;;;5091392;28;19909;-67
2021/08/01 01:33:45;;;;;;;;;;;13.30;99.90;;;;;;5091252;28;19915;-70
2021/08/01 01:36:15;;;;;;;;;;;13.20;99.90;;;;;;5091211;28;19909;-70
2021/08/01 01:38:40;;;;;;;;;;;13.20;99.90;;;;;;5091182;28;19954;-69
2021/08/01 01:41:06;;;;;;;;;;;12.90;99.90;;;;;;5091076;28;19908;-70
2021/08/01 01:43:32;;;;;;;;;;;13.10;99.90;;;;;;5091153;28;19951;-70
2021/08/01 01:45:58;;;;;;;;;;;13.00;99.90;;;;;;5091111;28;19912;-70
2021/08/01 01:48:24;;;;;;;;;;;13.00;99.90;;;;;;5091052;28;19912;-70
2021/08/01 01:50:49;;;;;;;;;;;13.00;99.90;;;;;;5090964;28;20273;-70
2021/08/01 01:53:15;;;;;;;;;;;13.00;99.90;;;;;;5123801;28;20305;-70
2021/08/01 01:55:42;;;;;;;;;;;13.00;99.90;;;;;;5091464;28;20005;-70
2021/08/01 01:58:11;;;;;;;;;;;13.00;99.90;;;;;;5123717;28;19912;-68
2021/08/01 02:00:36;;;;;;;;;;;13.00;99.90;;;;;;5091000;28;19908;-69
2021/08/01 02:03:02;;;;;;;;;;;13.00;99.90;;;;;;5090676;28;19912;-70
2021/08/01 02:05:27;;;;;;;;;;;13.00;99.90;;;;;;5090697;28;19912;-70
2021/08/01 02:07:53;;;;;;;;;;;13.00;99.90;;;;;;5090691;28;19908;-70
2021/08/01 02:10:29;;;;;;;;;;;13.00;99.90;;;;;;5090612;28;19954;-70
2021/08/01 02:12:56;;;;;;;;;;;13.00;99.90;;;;;;5090566;28;19922;-68
2021/08/01 02:15:24;;;;;;;;;;;13.00;99.90;;;;;;5090512;28;19963;-68
2021/08/01 02:18:10;;;;;;;;;;;13.00;99.90;;;;;;5090456;28;19915;-68
2021/08/01 02:20:39;;;;;;;;;;;12.90;99.90;;;;;;5089390;28;19912;-68
2021/08/01 02:23:06;;;;;;;;;;;12.90;99.90;;;;;;5123040;28;19931;-68
2021/08/01 02:25:32;;;;;;;;;;;12.90;99.90;;;;;;5090355;28;19909;-69
2021/08/01 02:27:59;;;;;;;;;;;12.80;99.90;;;;;;5090291;28;19912;-68
2021/08/01 02:30:26;;;;;;;;;;;12.80;99.90;;;;;;5090558;28;19908;-68
2021/08/01 02:32:52;;;;;;;;;;;12.80;99.90;;;;;;5085812;28;20270;-70
2021/08/01 02:35:18;;;;;;;;;;;12.80;99.90;;;;;;5077251;28;19919;-68
2021/08/01 02:37:45;;;;;;;;;;;12.90;99.90;;;;;;5077239;28;19915;-68
2021/08/01 02:40:11;;;;;;;;;;;12.80;99.90;;;;;;5076616;28;19915;-68
2021/08/01 02:42:36;;;;;;;;;;;12.90;99.90;;;;;;5076658;28;19919;-68
2021/08/01 02:45:02;;;;;;;;;;;12.80;99.90;;;;;;5092132;28;19912;-68
2021/08/01 02:47:29;;;;;;;;;;;12.80;99.90;;;;;;5076557;28;19920;-68
2021/08/01 02:49:55;;;;;;;;;;;12.80;99.90;;;;;;5076498;28;19908;-69
2021/08/01 02:52:30;;;;;;;;;;;12.80;99.90;;;;;;5076316;28;20357;-69
2021/08/01 02:54:56;;;;;;;;;;;12.80;99.90;;;;;;5076659;28;19909;-69
2021/08/01 02:57:22;;;;;;;;;;;12.80;99.90;;;;;;5077051;28;19934;-69
2021/08/01 02:59:48;;;;;;;;;;;12.80;99.90;;;;;;5075040;28;19962;-69
2021/08/01 03:02:15;;;;;;;;;;;12.80;99.90;;;;;;5074867;28;19916;-69
2021/08/01 03:04:40;;;;;;;;;;;12.80;99.90;;;;;;5076382;28;19909;-68
2021/08/01 03:07:07;;;;;;;;;;;12.70;99.90;;;;;;5074841;28;19908;-69
2021/08/01 03:09:32;;;;;;;;;;;12.70;99.90;;;;;;5076037;28;19909;-69
2021/08/01 03:12:14;;;;;;;;;;;12.70;99.90;;;;;;5109001;28;19912;-69
2021/08/01 03:14:40;;;;;;;;;;;12.70;99.90;;;;;;5076201;28;20361;-69
2021/08/01 03:17:05;;;;;;;;;;;12.60;99.90;;;;;;5076447;28;19952;-69
2021/08/01 03:19:33;;;;;;;;;;;12.70;99.90;;;;;;5076365;28;19908;-68
2021/08/01 03:21:58;;;;;;;;;;;12.70;99.90;;;;;;5085573;28;19920;-69
2021/08/01 03:24:24;;;;;;;;;;;12.70;99.90;;;;;;5095943;28;19915;-69
2021/08/01 03:26:49;;;;;;;;;;;12.70;99.90;;;;;;5077849;28;20006;-69
2021/08/01 03:29:15;;;;;;;;;;;12.70;99.90;;;;;;5078077;28;19908;-69
2021/08/01 03:31:40;;;;;;;;;;;12.60;99.90;;;;;;5078023;28;19908;-69
2021/08/01 03:34:06;;;;;;;;;;;12.60;99.90;;;;;;5095784;28;19912;-69
2021/08/01 03:36:31;;;;;;;;;;;12.60;99.90;;;;;;5096030;28;20372;-68
2021/08/01 03:38:57;;;;;;;;;;;12.70;99.90;;;;;;5095991;28;20273;-69
2021/08/01 03:41:22;;;;;;;;;;;12.70;99.90;;;;;;5095861;28;19999;-69
2021/08/01 03:43:48;;;;;;;;;;;12.70;99.90;;;;;;5095855;28;19912;-69
2021/08/01 03:46:13;;;;;;;;;;;12.70;99.90;;;;;;5076449;28;19951;-68
2021/08/01 03:48:38;;;;;;;;;;;12.70;99.90;;;;;;5095507;28;19915;-69
2021/08/01 03:51:04;;;;;;;;;;;12.70;99.90;;;;;;5095417;28;19964;-70
2021/08/01 03:53:31;;;;;;;;;;;12.70;99.90;;;;;;5095704;28;19908;-68
2021/08/01 03:56:00;;;;;;;;;;;12.60;99.90;;;;;;5095343;28;19908;-70
2021/08/01 03:58:26;;;;;;;;;;;12.60;99.90;;;;;;5095628;28;19990;-70
2021/08/01 04:00:51;;;;;;;;;;;12.60;99.90;;;;;;5060408;28;20434;-70
2021/08/01 04:03:16;;;;;;;;;;;12.70;99.90;;;;;;5076968;28;19912;-70
2021/08/01 04:05:42;;;;;;;;;;;12.70;99.90;;;;;;5077034;28;19908;-70
2021/08/01 04:08:07;;;;;;;;;;;12.70;99.90;;;;;;5076968;28;19912;-69
2021/08/01 04:10:34;;;;;;;;;;;12.80;99.90;;;;;;5076883;28;20380;-70
2021/08/01 04:12:59;;;;;;;;;;;12.80;99.90;;;;;;5094980;28;19909;-70
2021/08/01 04:15:25;;;;;;;;;;;12.90;99.90;;;;;;5094965;28;19908;-70
2021/08/01 04:17:50;;;;;;;;;;;12.90;99.90;;;;;;5076762;28;19957;-70
2021/08/01 04:20:15;;;;;;;;;;;13.00;99.90;;;;;;5076766;28;19914;-70
2021/08/01 04:22:42;;;;;;;;;;;13.10;99.90;;;;;;5076540;28;20010;-70
2021/08/01 04:25:08;;;;;;;;;;;13.20;99.90;;;;;;5076710;28;19916;-70
2021/08/01 04:27:33;;;;;;;;;;;13.20;99.90;;;;;;5094791;28;19908;-70
2021/08/01 04:29:58;;;;;;;;;;;13.30;99.90;;;;;;5094702;28;19962;-69
2021/08/01 04:32:24;;;;;;;;;;;13.40;99.90;;;;;;5094673;28;19909;-70
2021/08/01 04:34:49;;;;;;;;;;;13.40;99.90;;;;;;5094662;28;19909;-70
2021/08/01 04:37:15;;;;;;;;;;;13.50;99.90;;;;;;5094904;28;19908;-70
2021/08/01 04:39:40;;;;;;;;;;;13.50;99.90;;;;;;5094569;28;20412;-70
2021/08/01 04:42:06;;;;;;;;;;;13.60;99.90;;;;;;5094710;28;20435;-70
2021/08/01 04:44:31;;;;;;;;;;;13.70;99.90;;;;;;5094761;28;20410;-69
2021/08/01 04:46:56;;;;;;;;;;;13.70;99.90;;;;;;5094719;28;20346;-70
2021/08/01 04:49:22;;;;;;;;;;;13.70;99.90;;;;;;5094677;28;19931;-70
2021/08/01 04:51:47;;;;;;;;;;;13.80;99.90;;;;;;5094622;28;19946;-70
2021/08/01 04:54:13;;;;;;;;;;;13.90;99.90;;;;;;5094608;28;19915;-70
2021/08/01 04:56:42;;;;;;;;;;;14.00;99.90;;;;;;5094320;28;19908;-70
2021/08/01 04:59:07;;;;;;;;;;;14.10;99.90;;;;;;5094249;28;19908;-70
2021/08/01 05:01:33;;;;;;;;;;;14.20;99.90;;;;;;5094148;28;19935;-70
2021/08/01 05:03:58;;;;;;;;;;;14.20;99.90;;;;;;5076037;28;19908;-69
2021/08/01 05:06:23;;;;;;;;;;;14.20;99.90;;;;;;5094148;28;19995;-70
2021/08/01 05:08:49;;;;;;;;;;;14.40;99.90;;;;;;5094130;28;19996;-70
2021/08/01 05:11:14;;;;;;;;;;;14.50;99.90;;;;;;5094109;28;19915;-69
2021/08/01 05:13:40;;;;;;;;;;;14.50;99.90;;;;;;5094369;28;19908;-70
2021/08/01 05:16:05;;;;;;;;;;;14.60;99.90;;;;;;5094018;28;20369;-70
2021/08/01 05:18:31;;;;;;;;;;;14.60;99.90;;;;;;5093911;28;20375;-70
2021/08/01 05:20:56;;;;;;;;;;;14.70;99.90;;;;;;5093731;28;19954;-70
2021/08/01 05:23:22;;;;;;;;;;;14.70;99.90;;;;;;5094430;28;19994;-70
2021/08/01 05:25:47;;;;;;;;;;;14.70;99.90;;;;;;5094254;28;19920;-70
2021/08/01 05:28:12;;;;;;;;;;;14.70;99.90;;;;;;5094182;28;20428;-70
2021/08/01 05:30:39;;;;;;;;;;;;;;;;;;5093859;28;20381;-70
2021/08/01 05:33:05;;;;;;;;;;;15.00;99.90;;;;;;5094146;28;19916;-71
2021/08/01 05:35:31;;;;;;;;;;;15.10;99.90;;;;;;5094229;28;20273;-70
2021/08/01 05:37:56;;;;;;;;;;;15.10;99.90;;;;;;5093813;28;19912;-70
2021/08/01 05:40:22;;;;;;;;;;;15.20;99.90;;;;;;5094113;28;19971;-70
2021/08/01 05:42:47;;;;;;;;;;;15.30;99.90;;;;;;5075798;28;19916;-70
2021/08/01 05:45:12;;;;;;;;;;;15.40;99.90;;;;;;5093789;28;19908;-70
2021/08/01 05:47:38;;;;;;;;;;;15.60;99.90;;;;;;5094336;28;19912;-70
2021/08/01 05:50:04;;;;;;;;;;;15.70;99.90;;;;;;5094040;28;20376;-70
2021/08/01 05:52:29;;;;;;;;;;;15.90;99.90;;;;;;5093943;28;20303;-71
2021/08/01 05:54:55;;;;;;;;;;;16.00;99.90;;;;;;5075707;28;19908;-71
2021/08/01 05:57:20;;;;;;;;;;;16.10;99.90;;;;;;5093647;28;19908;-70
2021/08/01 05:59:45;;;;;;;;;;;16.00;99.90;;;;;;5093652;28;19908;-71
2021/08/01 06:02:11;;;;;;;;;;;16.10;99.90;;;;;;5093832;28;20379;-71
2021/08/01 06:04:37;;;;;;;;;;;16.10;99.90;;;;;;5093643;28;20353;-71
2021/08/01 06:07:03;;;;;;;;;;;16.30;99.90;;;;;;5093576;28;19908;-71
2021/08/01 06:09:28;;;;;;;;;;;16.40;99.90;;;;;;5096324;28;20452;-70
2021/08/01 06:11:54;;;;;;;;;;;16.50;99.90;;;;;;5079591;28;19908;-71
2021/08/01 06:14:19;;;;;;;;;;;16.70;99.90;;;;;;5097898;28;19915;-70
2021/08/01 06:16:45;;;;;;;;;;;16.90;99.90;;;;;;5097859;28;19908;-70
2021/08/01 06:19:10;;;;;;;;;;;17.10;99.90;;;;;;5097805;28;19908;-70
2021/08/01 06:21:36;;;;;;;;;;;17.30;99.90;;;;;;5079032;28;20370;-70
2021/08/01 06:24:01;;;;;;;;;;;17.60;99.90;;;;;;5097168;28;19957;-70
2021/08/01 06:26:27;;;;;;;;;;;17.70;99.90;;;;;;5097183;28;19915;-70
2021/08/01 06:28:52;;;;;;;;;;;17.90;99.90;;;;;;5097664;28;19909;-71
2021/08/01 06:31:18;;;;;;;;;;;17.90;99.90;;;;;;5097599;28;20281;-70
2021/08/01 06:33:44;;;;;;;;;;;17.90;99.90;;;;;;5096979;28;19908;-70
2021/08/01 06:36:11;;;;;;;;;;;18.20;99.90;;;;;;5096949;28;19908;-71
2021/08/01 06:38:37;;;;;;;;;;;18.30;99.90;;;;;;5096901;28;20018;-71
2021/08/01 06:41:03;;;;;;;;;;;18.30;99.90;;;;;;5096805;28;19965;-71
2021/08/01 06:43:29;;;;;;;;;;;18.40;99.90;;;;;;5096826;28;19908;-71
2021/08/01 06:45:55;;;;;;;;;;;18.40;99.90;;;;;;5096746;28;19916;-71
2021/08/01 06:48:20;;;;;;;;;;;18.40;99.90;;;;;;5096985;28;19908;-71
2021/08/01 06:50:46;;;;;;;;;;;18.60;99.90;;;;;;5096916;28;19908;-71
2021/08/01 06:53:11;;;;;;;;;;;18.30;99.90;;;;;;5096922;28;19946;-71
2021/08/01 06:55:37;;;;;;;;;;;17.90;99.90;;;;;;5078395;28;19908;-71
2021/08/01 06:58:02;;;;;;;;;;;17.60;99.90;;;;;;5097075;28;19962;-71
2021/08/01 07:00:28;;;;;;;;;;;17.40;99.90;;;;;;5097040;28;19912;-71
2021/08/01 07:02:54;;;;;;;;;;;17.50;99.90;;;;;;5096933;28;19963;-71
2021/08/01 07:05:19;;;;;;;;;;;17.80;99.90;;;;;;5079087;28;19909;-71
2021/08/01 07:07:45;;;;;;;;;;;17.80;99.90;;;;;;5078246;28;19954;-71
2021/08/01 07:10:10;;;;;;;;;;;17.80;99.90;;;;;;5096248;28;19915;-71
2021/08/01 07:12:38;;;;;;;;;;;17.90;99.90;;;;;;5096786;28;20049;-71
2021/08/01 07:15:04;;;;;;;;;;;18.60;99.90;;;;;;5096181;28;19908;-70
2021/08/01 07:17:30;;;;;;;;;;;19.00;99.90;;;;;;5096414;28;19909;-71
2021/08/01 07:19:55;;;;;;;;;;;18.90;99.90;;;;;;5095995;28;19931;-71
2021/08/01 07:22:21;;;;;;;;;;;18.90;99.90;;;;;;5095853;28;20290;-71
2021/08/01 07:24:46;;;;;;;;;;;19.10;99.90;;;;;;5096028;28;19908;-71
2021/08/01 07:27:11;;;;;;;;;;;18.90;99.90;;;;;;5095979;28;19908;-71
2021/08/01 07:29:37;;;;;;;;;;;18.60;99.90;;;;;;5095898;28;19915;-70
2021/08/01 07:32:03;;;;;;;;;;;18.50;99.90;;;;;;5078109;28;19915;-71
2021/08/01 07:34:28;;;;;;;;;;;19.00;99.90;;;;;;5096058;28;19961;-71
2021/08/01 07:36:54;;;;;;;;;;;19.20;99.90;;;;;;5096285;28;19908;-69
2021/08/01 07:39:19;;;;;;;;;;;19.30;99.90;;;;;;5096006;28;19912;-68
2021/08/01 07:41:45;;;;;;;;;;;19.30;99.90;;;;;;5077453;28;19919;-71
2021/08/01 07:44:10;;;;;;;;;;;19.10;99.90;;;;;;5095605;28;19943;-71
2021/08/01 07:46:36;;;;;;;;;;;18.80;99.90;;;;;;5095599;28;19914;-71
2021/08/01 07:49:01;;;;;;;;;;;18.50;99.90;;;;;;5095823;28;20007;-70
2021/08/01 07:51:26;;;;;;;;;;;18.20;99.90;;;;;;5095768;28;20273;-71
2021/08/01 07:53:52;;;;;;;;;;;18.50;99.90;;;;;;5077541;28;20277;-71
2021/08/01 07:56:17;;;;;;;;;;;18.50;99.90;;;;;;5077203;28;19935;-70
2021/08/01 07:58:43;;;;;;;;;;;18.50;99.90;;;;;;5095606;28;19908;-70
2021/08/01 08:01:08;;;;;;;;;;;18.80;99.90;;;;;;5077742;28;19912;-71
2021/08/01 08:03:34;;;;;;;;;;;20.30;99.90;;;;;;5095560;28;19991;-71
2021/08/01 08:06:01;;;;;;;;;;;21.10;99.90;;;;;;5095729;28;20391;-71
2021/08/01 08:08:27;;;;;;;;;;;21.50;99.90;;;;;;5095432;28;19912;-71
2021/08/01 08:10:52;;;;;;;;;;;21.90;99.90;;;;;;5095383;28;19916;-71
2021/08/01 08:13:18;;;;;;;;;;;21.10;99.90;;;;;;5095348;28;19916;-71
2021/08/01 08:15:43;;;;;;;;;;;21.10;99.90;;;;;;5094999;28;20365;-71
2021/08/01 08:18:08;;;;;;;;;;;21.50;99.90;;;;;;5095236;28;19908;-72
2021/08/01 08:20:34;;;;;;;;;;;21.20;99.90;;;;;;5095216;28;19909;-71
2021/08/01 08:22:59;;;;;;;;;;;20.80;99.90;;;;;;5094707;28;19920;-71
2021/08/01 08:25:25;;;;;;;;;;;20.50;99.90;;;;;;5077019;28;19909;-71
2021/08/01 08:27:51;;;;;;;;;;;20.90;99.90;;;;;;5095067;28;19912;-71
2021/08/01 08:30:16;;;;;;;;;;;20.70;99.90;;;;;;5095005;28;19908;-71
2021/08/01 08:32:42;;;;;;;;;;;20.10;99.90;;;;;;5094450;28;19915;-71
2021/08/01 08:35:07;;;;;;;;;;;20.10;99.90;;;;;;5095202;28;20306;-71
2021/08/01 08:37:41;;;;;;;;;;;20.50;99.90;;;;;;5094885;28;20344;-71
2021/08/01 08:40:07;;;;;;;;;;;21.40;99.90;;;;;;5094892;28;19912;-71
2021/08/01 08:42:32;;;;;;;;;;;21.60;99.90;;;;;;5076296;28;20415;-71
2021/08/01 08:44:59;;;;;;;;;;;21.80;99.90;;;;;;5076371;28;19995;-71
2021/08/01 08:47:26;;;;;;;;;;;21.60;99.90;;;;;;5094469;28;19940;-71
2021/08/01 08:49:55;;;;;;;;;;;21.60;99.90;;;;;;5094982;28;19916;-71
2021/08/01 08:52:20;;;;;;;;;;;21.90;99.90;;;;;;5094337;28;20277;-71
2021/08/01 08:54:48;;;;;;;;;;;22.30;99.90;;;;;;5094640;28;19915;-71
2021/08/01 08:57:22;;;;;;;;;;;21.70;99.90;;;;;;5094609;28;20265;-71
2021/08/01 08:59:52;;;;;;;;;;;21.20;99.90;;;;;;5076132;28;19908;-71
2021/08/01 09:02:18;;;;;;;;;;;21.30;99.90;;;;;;5094163;28;19913;-71
2021/08/01 09:04:44;;;;;;;;;;;21.10;99.90;;;;;;5076596;28;20003;-71
2021/08/01 09:07:09;;;;;;;;;;;20.80;99.90;;;;;;5094441;28;20376;-71
2021/08/01 09:09:35;;;;;;;;;;;20.90;99.90;;;;;;5094129;28;20003;-71
2021/08/01 09:12:00;;;;;;;;;;;22.10;99.90;;;;;;5094033;28;20348;-70
2021/08/01 09:14:26;;;;;;;;;;;23.20;99.90;;;;;;5075962;28;19915;-72
2021/08/01 09:16:51;;;;;;;;;;;22.40;99.90;;;;;;5094030;28;19908;-71
2021/08/01 09:19:35;;;;;;;;;;;21.30;99.90;;;;;;5076231;28;19934;-71
2021/08/01 09:22:21;;;;;;;;;;;21.30;99.90;;;;;;5075915;28;20015;-71
2021/08/01 09:24:48;;;;;;;;;;;22.40;99.90;;;;;;5093966;28;19908;-71
2021/08/01 09:27:24;;;;;;;;;;;22.00;99.90;;;;;;5094270;28;19934;-71
2021/08/01 09:29:50;;;;;;;;;;;22.30;99.90;;;;;;5094232;28;19976;-71
2021/08/01 09:32:16;;;;;;;;;;;22.00;99.90;;;;;;5093947;28;20369;-71
2021/08/01 09:34:48;;;;;;;;;;;21.70;99.90;;;;;;5093940;28;19908;-71
2021/08/01 09:37:28;;;;;;;;;;;21.50;99.90;;;;;;5094726;28;20307;-71
2021/08/01 09:40:04;;;;;;;;;;;22.10;99.90;;;;;;5094158;28;19908;-71
2021/08/01 09:42:38;;;;;;;;;;;22.50;99.90;;;;;;5093632;28;19912;-71
2021/08/01 09:45:11;;;;;;;;;;;22.00;99.90;;;;;;5098252;28;19915;-71
2021/08/01 09:47:37;;;;;;;;;;;21.70;99.90;;;;;;5098463;28;19957;-70
2021/08/01 09:50:04;;;;;;;;;;;21.50;99.90;;;;;;5080353;28;20388;-71
2021/08/01 09:52:30;;;;;;;;;;;21.00;99.90;;;;;;5098321;28;19969;-71
2021/08/01 09:54:55;;;;;;;;;;;20.50;99.90;;;;;;5098303;28;19911;-71
2021/08/01 09:57:21;;;;;;;;;;;20.40;99.90;;;;;;5098271;28;20382;-71
2021/08/01 09:59:47;;;;;;;;;;;20.60;99.90;;;;;;5098203;28;19908;-71
2021/08/01 10:02:13;;;;;;;;;;;22.30;99.90;;;;;;5098024;28;19985;-71
2021/08/01 10:04:40;;;;;;;;;;;23.10;99.90;;;;;;5079696;28;19912;-71
2021/08/01 10:07:11;;;;;;;;;;;23.30;99.90;;;;;;5097737;28;19912;-71
2021/08/01 10:09:37;;;;;;;;;;;22.70;99.90;;;;;;5097945;28;19908;-71
2021/08/01 10:12:04;;;;;;;;;;;22.00;99.90;;;;;;5097952;28;19909;-71
2021/08/01 10:14:29;;;;;;;;;;;21.70;99.90;;;;;;5079543;28;19908;-71
2021/08/01 10:16:56;;;;;;;;;;;21.30;99.90;;;;;;5097571;28;20007;-71
2021/08/01 10:19:21;;;;;;;;;;;21.20;99.90;;;;;;5079525;28;19909;-71
2021/08/01 10:21:49;;;;;;;;;;;22.40;99.90;;;;;;5097132;28;19927;-71
2021/08/01 10:24:16;;;;;;;;;;;23.30;99.90;;;;;;5097239;28;19909;-71
2021/08/01 10:26:46;;;;;;;;;;;24.00;99.90;;;;;;5096986;28;19961;-71
2021/08/01 10:29:14;;;;;;;;;;;24.20;99.90;;;;;;5079244;28;19908;-71
2021/08/01 10:31:50;;;;;;;;;;;24.30;99.90;;;;;;5078824;28;20281;-71
2021/08/01 10:34:17;;;;;;;;;;;23.70;99.90;;;;;;5097201;28;20368;-71
2021/08/01 10:36:46;;;;;;;;;;;24.70;99.90;;;;;;5097180;28;19931;-71
2021/08/01 10:39:13;;;;;;;;;;;23.70;99.90;;;;;;5096831;28;19908;-71
2021/08/01 10:41:39;;;;;;;;;;;22.80;99.90;;;;;;5097320;28;20377;-71
2021/08/01 10:44:06;;;;;;;;;;;22.30;99.90;;;;;;5097048;28;19947;-71
2021/08/01 10:46:33;;;;;;;;;;;21.50;99.90;;;;;;5097270;28;19930;-71
2021/08/01 10:48:59;;;;;;;;;;;21.30;99.90;;;;;;5097204;28;20002;-71
2021/08/01 10:51:26;;;;;;;;;;;21.40;99.90;;;;;;5078607;28;20274;-71
2021/08/01 10:53:52;;;;;;;;;;;21.70;99.90;;;;;;5077936;28;19908;-71
2021/08/01 10:56:29;;;;;;;;;;;21.90;99.90;;;;;;5096860;28;19977;-70
2021/08/01 10:58:54;;;;;;;;;;;22.90;99.90;;;;;;5078735;28;19953;-71
2021/08/01 11:01:20;;;;;;;;;;;23.20;99.90;;;;;;5078278;28;19912;-71
2021/08/01 11:03:45;;;;;;;;;;;23.10;99.90;;;;;;5096443;28;19912;-71
2021/08/01 11:06:30;;;;;;;;;;;22.30;99.90;;;;;;5096420;28;19912;-71
2021/08/01 11:09:12;;;;;;;;;;;22.30;99.90;;;;;;5096228;28;19908;-71
2021/08/01 11:11:38;;;;;;;;;;;22.60;99.90;;;;;;5096269;28;20049;-71
2021/08/01 11:14:03;;;;;;;;;;;22.60;99.90;;;;;;5096199;28;19955;-71
2021/08/01 11:19:27;;;;;;;;;;;23.10;99.90;;;;;;5092346;28;19912;-70
2021/08/01 11:21:53;;;;;;;;;;;23.80;99.90;;;;;;5091470;28;19912;-69
2021/08/01 11:24:18;;;;;;;;;;;23.70;99.90;;;;;;5090081;28;19919;-69
2021/08/01 11:27:04;;;;;;;;;;;23.40;99.90;;;;;;5091349;28;19909;-70
2021/08/01 11:29:29;;;;;;;;;;;23.40;99.90;;;;;;5091230;28;20403;-69
2021/08/01 11:32:10;;;;;;;;;;;23.30;99.90;;;;;;5091228;28;19912;-69
2021/08/01 11:34:36;;;;;;;;;;;23.50;99.90;;;;;;5091244;28;19908;-71
2021/08/01 11:37:18;;;;;;;;;;;23.50;99.90;;;;;;5089760;28;19919;-71
2021/08/01 11:39:52;;;;;;;;;;;23.40;99.90;;;;;;5091135;28;19909;-71
2021/08/01 11:42:22;;;;;;;;;;;23.50;99.90;;;;;;5091349;28;20311;-70
2021/08/01 11:44:55;;;;;;;;;;;23.10;99.90;;;;;;5091009;28;19915;-70
2021/08/01 11:47:21;;;;;;;;;;;22.60;99.90;;;;;;5090946;28;20062;-71
2021/08/01 11:49:49;;;;;;;;;;;22.80;99.90;;;;;;5091157;28;20401;-71
2021/08/01 11:52:20;;;;;;;;;;;23.30;99.90;;;;;;5091098;28;20109;-71
2021/08/01 11:54:45;;;;;;;;;;;23.20;99.90;;;;;;5091102;28;19909;-71
2021/08/01 11:57:12;;;;;;;;;;;23.20;99.90;;;;;;5090935;28;19935;-71
2021/08/01 11:59:38;;;;;;;;;;;22.90;99.90;;;;;;5090962;28;19960;-71
2021/08/01 12:02:08;;;;;;;;;;;23.20;99.90;;;;;;5090916;28;19908;-69
2021/08/01 12:04:33;;;;;;;;;;;23.40;99.90;;;;;;5090860;28;19908;-69
2021/08/01 12:06:59;;;;;;;;;;;22.70;99.90;;;;;;5089221;28;19908;-69
2021/08/01 12:09:26;;;;;;;;;;;22.80;99.90;;;;;;5123589;28;19909;-71
2021/08/01 12:11:54;;;;;;;;;;;23.10;99.90;;;;;;5090723;28;19909;-71
2021/08/01 12:14:23;;;;;;;;;;;23.30;99.90;;;;;;5090737;28;19916;-71
2021/08/01 12:16:52;;;;;;;;;;;23.70;99.90;;;;;;5091559;28;19917;-71
2021/08/01 12:19:19;;;;;;;;;;;23.50;99.90;;;;;;5110637;28;19991;-71
2021/08/01 12:21:44;;;;;;;;;;;22.80;99.90;;;;;;5111180;28;19957;-71
2021/08/01 12:24:30;;;;;;;;;;;22.20;99.90;;;;;;5110551;28;19912;-71
2021/08/01 12:26:57;;;;;;;;;;;21.80;99.90;;;;;;5078894;28;19973;-71
2021/08/01 12:29:31;;;;;;;;;;;21.90;99.90;;;;;;5103049;28;19981;-71
2021/08/01 12:31:57;;;;;;;;;;;22.00;99.90;;;;;;5096862;28;20379;-71
2021/08/01 12:34:23;;;;;;;;;;;21.40;99.90;;;;;;5097064;28;19908;-71
2021/08/01 12:36:49;;;;;;;;;;;21.60;99.90;;;;;;5096951;28;19949;-71
2021/08/01 12:39:18;;;;;;;;;;;22.10;99.90;;;;;;5097012;28;20273;-71
2021/08/01 12:41:44;;;;;;;;;;;22.20;99.90;;;;;;5096942;28;20021;-71
2021/08/01 12:44:12;;;;;;;;;;;22.80;99.90;;;;;;5096926;28;20273;-69
2021/08/01 12:46:37;;;;;;;;;;;23.00;99.90;;;;;;5096533;28;19912;-71
2021/08/01 12:49:03;;;;;;;;;;;23.00;99.90;;;;;;5096529;28;19962;-71
2021/08/01 12:51:28;;;;;;;;;;;23.10;99.90;;;;;;5096496;28;19916;-69
2021/08/01 12:53:58;;;;;;;;;;;22.90;99.90;;;;;;5078340;28;19908;-71
2021/08/01 12:56:23;;;;;;;;;;;22.70;99.90;;;;;;5096467;28;20007;-71
2021/08/01 12:58:49;;;;;;;;;;;22.60;99.90;;;;;;5096286;28;19955;-71
2021/08/01 13:01:14;;;;;;;;;;;23.00;99.90;;;;;;5096613;28;19931;-70
2021/08/01 13:03:41;;;;;;;;;;;23.10;99.90;;;;;;5096847;28;19909;-71
2021/08/01 13:06:07;;;;;;;;;;;23.20;99.90;;;;;;5096801;28;20265;-71
2021/08/01 13:08:42;;;;;;;;;;;23.00;99.90;;;;;;5096446;28;20368;-69
2021/08/01 13:11:09;;;;;;;;;;;22.60;99.90;;;;;;5096419;28;19915;-70
2021/08/01 13:13:51;;;;;;;;;;;22.70;99.90;;;;;;5096416;28;19908;-71
2021/08/01 13:16:16;;;;;;;;;;;22.50;99.90;;;;;;5078727;28;19908;-71
2021/08/01 13:18:42;;;;;;;;;;;22.50;99.90;;;;;;5095904;28;19949;-71
2021/08/01 13:21:23;;;;;;;;;;;22.70;99.90;;;;;;5095911;28;19908;-71
2021/08/01 13:23:49;;;;;;;;;;;22.80;99.90;;;;;;5077733;28;20379;-70
2021/08/01 13:26:23;;;;;;;;;;;22.80;99.90;;;;;;5095835;28;20284;-71
2021/08/01 13:28:52;;;;;;;;;;;23.10;99.90;;;;;;5096072;28;19920;-69
2021/08/01 13:31:19;;;;;;;;;;;22.90;99.90;;;;;;5096055;28;19931;-70
2021/08/01 13:34:02;;;;;;;;;;;23.10;99.90;;;;;;5095973;28;19915;-71
2021/08/01 13:36:44;;;;;;;;;;;22.80;99.90;;;;;;5077490;28;19908;-71
2021/08/01 13:39:10;;;;;;;;;;;22.90;99.90;;;;;;5095536;28;19998;-71
2021/08/01 13:41:38;;;;;;;;;;;23.20;99.90;;;;;;5094852;28;19908;-71
2021/08/01 13:44:07;;;;;;;;;;;23.30;99.90;;;;;;5095446;28;19915;-71
2021/08/01 13:46:33;;;;;;;;;;;23.20;99.90;;;;;;5095434;28;19915;-71
2021/08/01 13:48:58;;;;;;;;;;;23.30;99.90;;;;;;5095396;28;20284;-71
2021/08/01 13:51:23;;;;;;;;;;;23.10;99.90;;;;;;5077159;28;19908;-71
2021/08/01 13:53:49;;;;;;;;;;;23.10;99.90;;;;;;5077170;28;19915;-71
2021/08/01 13:56:14;;;;;;;;;;;23.10;99.90;;;;;;5095823;28;20007;-71
2021/08/01 13:58:40;;;;;;;;;;;23.30;99.90;;;;;;5077029;28;19974;-71
2021/08/01 14:01:05;;;;;;;;;;;23.40;99.90;;;;;;5095185;28;19908;-71
2021/08/01 14:03:31;;;;;;;;;;;23.70;99.90;;;;;;5095109;28;19908;-69
2021/08/01 14:05:56;;;;;;;;;;;23.70;99.90;;;;;;5076979;28;19991;-71
2021/08/01 14:08:21;;;;;;;;;;;23.60;99.90;;;;;;5094998;28;20281;-71
2021/08/01 14:10:47;;;;;;;;;;;23.40;99.90;;;;;;5094985;28;20290;-71
2021/08/01 14:13:13;;;;;;;;;;;23.30;99.90;;;;;;5094931;28;19908;-71
2021/08/01 14:15:38;;;;;;;;;;;23.20;99.90;;;;;;5095164;28;19908;-71
2021/08/01 14:18:04;;;;;;;;;;;22.70;99.90;;;;;;5094778;28;19926;-70
2021/08/01 14:20:29;;;;;;;;;;;22.30;99.90;;;;;;5094702;28;20400;-71
2021/08/01 14:22:55;;;;;;;;;;;22.30;99.90;;;;;;5076944;28;19916;-70
2021/08/01 14:25:20;;;;;;;;;;;22.70;99.90;;;;;;5094974;28;19914;-71